sensor_id;sensor_type;location;lat;lon;timestamp;P1;durP1;ratioP1;P2;durP2;ratioP2
8464;SDS011;72380;52.680;13.606;2024-03-08T00:02:14;12.13;;;5.53;;
8464;SDS011;72380;52.680;13.606;2024-03-08T00:04:41;12.20;;;7.23;;
8464;SDS011;72380;52.680;13.606;2024-03-08T00:07:11;11.37;;;6.50;;
8464;SDS011;72380;52.680;13.606;2024-03-08T00:09:39;9.50;;;5.60;;
8464;SDS011;72380;52.680;13.606;2024-03-08T00:12:07;11.90;;;6.10;;
8464;SDS011;72380;52.680;13.606;2024-03-08T00:14:34;12.63;;;5.07;;
8464;SDS011;72380;52.680;13.606;2024-03-08T00:17:03;9.90;;;5.57;;
8464;SDS011;72380;52.680;13.606;2024-03-08T00:19:31;13.97;;;5.97;;
8464;SDS011;72380;52.680;13.606;2024-03-08T00:21:58;11.17;;;4.70;;
8464;SDS011;72380;52.680;13.606;2024-03-08T00:24:27;9.40;;;4.53;;
8464;SDS011;72380;52.680;13.606;2024-03-08T00:26:56;11.77;;;6.37;;
8464;SDS011;72380;52.680;13.606;2024-03-08T00:29:24;9.23;;;5.40;;
8464;SDS011;72380;52.680;13.606;2024-03-08T00:31:51;13.23;;;5.70;;
8464;SDS011;72380;52.680;13.606;2024-03-08T00:34:18;13.93;;;5.43;;
8464;SDS011;72380;52.680;13.606;2024-03-08T00:36:46;14.17;;;5.87;;
8464;SDS011;72380;52.680;13.606;2024-03-08T00:39:14;9.77;;;5.20;;
8464;SDS011;72380;52.680;13.606;2024-03-08T00:41:42;9.33;;;5.37;;
8464;SDS011;72380;52.680;13.606;2024-03-08T00:44:10;11.13;;;5.43;;
8464;SDS011;72380;52.680;13.606;2024-03-08T00:46:37;11.40;;;5.97;;
8464;SDS011;72380;52.680;13.606;2024-03-08T00:49:04;10.67;;;5.93;;
8464;SDS011;72380;52.680;13.606;2024-03-08T00:51:32;9.80;;;5.37;;
8464;SDS011;72380;52.680;13.606;2024-03-08T00:53:59;11.67;;;5.77;;
8464;SDS011;72380;52.680;13.606;2024-03-08T00:56:26;12.17;;;6.10;;
8464;SDS011;72380;52.680;13.606;2024-03-08T00:58:55;12.10;;;5.97;;
8464;SDS011;72380;52.680;13.606;2024-03-08T01:01:22;10.57;;;5.67;;
8464;SDS011;72380;52.680;13.606;2024-03-08T01:03:50;11.40;;;5.20;;
8464;SDS011;72380;52.680;13.606;2024-03-08T01:06:17;9.53;;;4.97;;
8464;SDS011;72380;52.680;13.606;2024-03-08T01:08:45;17.13;;;5.77;;
8464;SDS011;72380;52.680;13.606;2024-03-08T01:11:12;11.57;;;5.77;;
8464;SDS011;72380;52.680;13.606;2024-03-08T01:13:40;11.27;;;5.67;;
8464;SDS011;72380;52.680;13.606;2024-03-08T01:16:08;10.10;;;6.20;;
8464;SDS011;72380;52.680;13.606;2024-03-08T01:18:36;11.80;;;6.03;;
8464;SDS011;72380;52.680;13.606;2024-03-08T01:21:04;12.33;;;6.53;;
8464;SDS011;72380;52.680;13.606;2024-03-08T01:23:31;14.93;;;5.97;;
8464;SDS011;72380;52.680;13.606;2024-03-08T01:26:00;8.70;;;4.43;;
8464;SDS011;72380;52.680;13.606;2024-03-08T01:28:27;13.17;;;5.57;;
8464;SDS011;72380;52.680;13.606;2024-03-08T01:30:54;11.10;;;6.33;;
8464;SDS011;72380;52.680;13.606;2024-03-08T01:33:24;11.93;;;6.57;;
8464;SDS011;72380;52.680;13.606;2024-03-08T01:35:51;12.20;;;5.70;;
8464;SDS011;72380;52.680;13.606;2024-03-08T01:38:18;9.73;;;6.10;;
8464;SDS011;72380;52.680;13.606;2024-03-08T01:40:46;7.10;;;4.93;;
8464;SDS011;72380;52.680;13.606;2024-03-08T01:43:17;9.77;;;4.90;;
8464;SDS011;72380;52.680;13.606;2024-03-08T01:45:45;16.80;;;5.23;;
8464;SDS011;72380;52.680;13.606;2024-03-08T01:48:12;10.90;;;6.20;;
8464;SDS011;72380;52.680;13.606;2024-03-08T01:50:41;9.73;;;4.57;;
8464;SDS011;72380;52.680;13.606;2024-03-08T01:53:08;10.87;;;5.90;;
8464;SDS011;72380;52.680;13.606;2024-03-08T01:55:37;14.30;;;6.53;;
8464;SDS011;72380;52.680;13.606;2024-03-08T01:58:05;8.70;;;4.87;;
8464;SDS011;72380;52.680;13.606;2024-03-08T02:00:32;19.67;;;7.73;;
8464;SDS011;72380;52.680;13.606;2024-03-08T02:03:00;11.87;;;7.03;;
8464;SDS011;72380;52.680;13.606;2024-03-08T02:05:29;12.30;;;6.40;;
8464;SDS011;72380;52.680;13.606;2024-03-08T02:07:58;12.37;;;6.17;;
8464;SDS011;72380;52.680;13.606;2024-03-08T02:10:25;17.27;;;4.87;;
8464;SDS011;72380;52.680;13.606;2024-03-08T02:12:52;13.93;;;5.37;;
8464;SDS011;72380;52.680;13.606;2024-03-08T02:15:20;13.50;;;5.23;;
8464;SDS011;72380;52.680;13.606;2024-03-08T02:17:47;12.53;;;5.70;;
8464;SDS011;72380;52.680;13.606;2024-03-08T02:20:15;13.30;;;6.13;;
8464;SDS011;72380;52.680;13.606;2024-03-08T02:22:46;12.53;;;5.13;;
8464;SDS011;72380;52.680;13.606;2024-03-08T02:25:13;10.93;;;5.03;;
8464;SDS011;72380;52.680;13.606;2024-03-08T02:27:41;13.53;;;6.20;;
8464;SDS011;72380;52.680;13.606;2024-03-08T02:30:09;8.87;;;4.70;;
8464;SDS011;72380;52.680;13.606;2024-03-08T02:32:38;13.00;;;6.70;;
8464;SDS011;72380;52.680;13.606;2024-03-08T02:35:05;7.70;;;4.97;;
8464;SDS011;72380;52.680;13.606;2024-03-08T02:37:32;9.40;;;6.03;;
8464;SDS011;72380;52.680;13.606;2024-03-08T02:40:01;9.47;;;5.13;;
8464;SDS011;72380;52.680;13.606;2024-03-08T02:42:28;10.23;;;5.60;;
8464;SDS011;72380;52.680;13.606;2024-03-08T02:44:56;9.90;;;4.93;;
8464;SDS011;72380;52.680;13.606;2024-03-08T02:47:23;9.23;;;5.27;;
8464;SDS011;72380;52.680;13.606;2024-03-08T02:49:51;15.83;;;5.97;;
8464;SDS011;72380;52.680;13.606;2024-03-08T02:52:18;17.10;;;6.57;;
8464;SDS011;72380;52.680;13.606;2024-03-08T02:54:47;9.93;;;5.43;;
8464;SDS011;72380;52.680;13.606;2024-03-08T02:57:16;13.00;;;7.33;;
8464;SDS011;72380;52.680;13.606;2024-03-08T02:59:43;17.07;;;6.73;;
8464;SDS011;72380;52.680;13.606;2024-03-08T03:02:11;16.77;;;8.53;;
8464;SDS011;72380;52.680;13.606;2024-03-08T03:04:39;15.37;;;6.50;;
8464;SDS011;72380;52.680;13.606;2024-03-08T03:07:06;17.77;;;5.97;;
8464;SDS011;72380;52.680;13.606;2024-03-08T03:09:33;9.97;;;6.40;;
8464;SDS011;72380;52.680;13.606;2024-03-08T03:12:01;11.33;;;6.30;;
8464;SDS011;72380;52.680;13.606;2024-03-08T03:14:30;13.93;;;5.37;;
8464;SDS011;72380;52.680;13.606;2024-03-08T03:16:59;13.37;;;6.47;;
8464;SDS011;72380;52.680;13.606;2024-03-08T03:19:28;8.00;;;5.33;;
8464;SDS011;72380;52.680;13.606;2024-03-08T03:21:55;14.03;;;5.77;;
8464;SDS011;72380;52.680;13.606;2024-03-08T03:24:23;10.47;;;5.83;;
8464;SDS011;72380;52.680;13.606;2024-03-08T03:26:50;16.20;;;5.20;;
8464;SDS011;72380;52.680;13.606;2024-03-08T03:29:17;16.10;;;6.63;;
8464;SDS011;72380;52.680;13.606;2024-03-08T03:31:46;11.40;;;5.83;;
8464;SDS011;72380;52.680;13.606;2024-03-08T03:34:14;12.57;;;5.87;;
8464;SDS011;72380;52.680;13.606;2024-03-08T03:36:41;14.87;;;7.30;;
8464;SDS011;72380;52.680;13.606;2024-03-08T03:39:10;12.10;;;7.23;;
8464;SDS011;72380;52.680;13.606;2024-03-08T03:41:38;12.40;;;6.40;;
8464;SDS011;72380;52.680;13.606;2024-03-08T03:44:05;11.27;;;6.00;;
8464;SDS011;72380;52.680;13.606;2024-03-08T03:46:32;12.73;;;5.67;;
8464;SDS011;72380;52.680;13.606;2024-03-08T03:49:02;13.77;;;6.63;;
8464;SDS011;72380;52.680;13.606;2024-03-08T03:51:29;13.20;;;6.97;;
8464;SDS011;72380;52.680;13.606;2024-03-08T03:53:57;10.20;;;5.97;;
8464;SDS011;72380;52.680;13.606;2024-03-08T03:56:27;9.03;;;5.57;;
8464;SDS011;72380;52.680;13.606;2024-03-08T03:58:54;11.43;;;5.57;;
8464;SDS011;72380;52.680;13.606;2024-03-08T04:01:21;15.30;;;7.93;;
8464;SDS011;72380;52.680;13.606;2024-03-08T04:03:49;13.67;;;6.70;;
8464;SDS011;72380;52.680;13.606;2024-03-08T04:06:18;10.30;;;5.10;;
8464;SDS011;72380;52.680;13.606;2024-03-08T04:08:45;19.30;;;6.37;;
8464;SDS011;72380;52.680;13.606;2024-03-08T04:11:12;15.93;;;7.47;;
8464;SDS011;72380;52.680;13.606;2024-03-08T04:13:41;17.63;;;7.43;;
8464;SDS011;72380;52.680;13.606;2024-03-08T04:16:08;11.30;;;7.60;;
8464;SDS011;72380;52.680;13.606;2024-03-08T04:18:36;15.47;;;8.00;;
8464;SDS011;72380;52.680;13.606;2024-03-08T04:21:04;13.07;;;7.23;;
8464;SDS011;72380;52.680;13.606;2024-03-08T04:23:34;15.37;;;8.33;;
8464;SDS011;72380;52.680;13.606;2024-03-08T04:26:02;11.77;;;6.40;;
8464;SDS011;72380;52.680;13.606;2024-03-08T04:28:29;18.67;;;7.20;;
8464;SDS011;72380;52.680;13.606;2024-03-08T04:30:57;13.63;;;7.00;;
8464;SDS011;72380;52.680;13.606;2024-03-08T04:33:25;15.30;;;7.63;;
8464;SDS011;72380;52.680;13.606;2024-03-08T04:35:53;12.83;;;6.80;;
8464;SDS011;72380;52.680;13.606;2024-03-08T04:38:20;13.30;;;6.77;;
8464;SDS011;72380;52.680;13.606;2024-03-08T04:40:49;9.17;;;4.90;;
8464;SDS011;72380;52.680;13.606;2024-03-08T04:43:17;18.03;;;7.73;;
8464;SDS011;72380;52.680;13.606;2024-03-08T04:45:46;11.30;;;6.60;;
8464;SDS011;72380;52.680;13.606;2024-03-08T04:48:13;14.47;;;6.87;;
8464;SDS011;72380;52.680;13.606;2024-03-08T04:50:41;13.57;;;6.77;;
8464;SDS011;72380;52.680;13.606;2024-03-08T04:53:10;12.00;;;6.60;;
8464;SDS011;72380;52.680;13.606;2024-03-08T04:55:37;20.37;;;6.47;;
8464;SDS011;72380;52.680;13.606;2024-03-08T04:58:06;15.90;;;6.13;;
8464;SDS011;72380;52.680;13.606;2024-03-08T05:00:33;15.07;;;6.13;;
8464;SDS011;72380;52.680;13.606;2024-03-08T05:03:00;16.70;;;6.40;;
8464;SDS011;72380;52.680;13.606;2024-03-08T05:05:28;10.97;;;6.60;;
8464;SDS011;72380;52.680;13.606;2024-03-08T05:07:55;12.23;;;7.47;;
8464;SDS011;72380;52.680;13.606;2024-03-08T05:10:23;20.80;;;7.43;;
8464;SDS011;72380;52.680;13.606;2024-03-08T05:12:50;14.80;;;5.87;;
8464;SDS011;72380;52.680;13.606;2024-03-08T05:15:19;16.37;;;6.03;;
8464;SDS011;72380;52.680;13.606;2024-03-08T05:17:46;11.30;;;6.00;;
8464;SDS011;72380;52.680;13.606;2024-03-08T05:20:14;11.93;;;7.23;;
8464;SDS011;72380;52.680;13.606;2024-03-08T05:22:42;14.93;;;6.27;;
8464;SDS011;72380;52.680;13.606;2024-03-08T05:25:10;9.90;;;7.23;;
8464;SDS011;72380;52.680;13.606;2024-03-08T05:27:37;9.67;;;5.87;;
8464;SDS011;72380;52.680;13.606;2024-03-08T05:30:05;11.23;;;5.63;;
8464;SDS011;72380;52.680;13.606;2024-03-08T05:32:34;12.17;;;7.50;;
8464;SDS011;72380;52.680;13.606;2024-03-08T05:35:02;13.03;;;5.50;;
8464;SDS011;72380;52.680;13.606;2024-03-08T05:37:32;9.63;;;6.03;;
8464;SDS011;72380;52.680;13.606;2024-03-08T05:40:00;17.37;;;6.23;;
8464;SDS011;72380;52.680;13.606;2024-03-08T05:42:28;14.23;;;7.07;;
8464;SDS011;72380;52.680;13.606;2024-03-08T05:44:55;24.10;;;7.97;;
8464;SDS011;72380;52.680;13.606;2024-03-08T05:47:24;16.33;;;7.73;;
8464;SDS011;72380;52.680;13.606;2024-03-08T05:49:52;13.47;;;7.23;;
8464;SDS011;72380;52.680;13.606;2024-03-08T05:52:20;11.83;;;6.77;;
8464;SDS011;72380;52.680;13.606;2024-03-08T05:54:47;11.17;;;7.20;;
8464;SDS011;72380;52.680;13.606;2024-03-08T05:57:14;13.70;;;7.00;;
8464;SDS011;72380;52.680;13.606;2024-03-08T05:59:42;19.17;;;8.27;;
8464;SDS011;72380;52.680;13.606;2024-03-08T06:02:09;22.03;;;8.73;;
8464;SDS011;72380;52.680;13.606;2024-03-08T06:04:36;18.70;;;7.57;;
8464;SDS011;72380;52.680;13.606;2024-03-08T06:07:05;15.67;;;7.77;;
8464;SDS011;72380;52.680;13.606;2024-03-08T06:09:37;13.63;;;6.97;;
8464;SDS011;72380;52.680;13.606;2024-03-08T06:12:05;12.77;;;6.17;;
8464;SDS011;72380;52.680;13.606;2024-03-08T06:14:35;13.47;;;6.53;;
8464;SDS011;72380;52.680;13.606;2024-03-08T06:17:03;14.03;;;7.50;;
8464;SDS011;72380;52.680;13.606;2024-03-08T06:19:32;18.07;;;8.37;;
8464;SDS011;72380;52.680;13.606;2024-03-08T06:22:01;14.53;;;9.13;;
8464;SDS011;72380;52.680;13.606;2024-03-08T06:24:32;12.50;;;6.53;;
8464;SDS011;72380;52.680;13.606;2024-03-08T06:27:01;15.27;;;6.73;;
8464;SDS011;72380;52.680;13.606;2024-03-08T06:29:29;16.83;;;6.50;;
8464;SDS011;72380;52.680;13.606;2024-03-08T06:31:56;14.20;;;7.10;;
8464;SDS011;72380;52.680;13.606;2024-03-08T06:34:25;20.23;;;7.60;;
8464;SDS011;72380;52.680;13.606;2024-03-08T06:36:52;9.73;;;5.10;;
8464;SDS011;72380;52.680;13.606;2024-03-08T06:39:26;11.43;;;5.70;;
8464;SDS011;72380;52.680;13.606;2024-03-08T06:41:56;15.63;;;7.53;;
8464;SDS011;72380;52.680;13.606;2024-03-08T06:44:24;17.23;;;8.20;;
8464;SDS011;72380;52.680;13.606;2024-03-08T06:46:51;18.23;;;9.13;;
8464;SDS011;72380;52.680;13.606;2024-03-08T06:49:19;16.47;;;8.50;;
8464;SDS011;72380;52.680;13.606;2024-03-08T06:51:46;13.33;;;7.70;;
8464;SDS011;72380;52.680;13.606;2024-03-08T06:54:13;14.33;;;7.60;;
8464;SDS011;72380;52.680;13.606;2024-03-08T06:56:40;22.80;;;9.73;;
8464;SDS011;72380;52.680;13.606;2024-03-08T06:59:10;14.57;;;9.50;;
8464;SDS011;72380;52.680;13.606;2024-03-08T07:01:37;20.43;;;9.90;;
8464;SDS011;72380;52.680;13.606;2024-03-08T07:04:04;17.97;;;9.53;;
8464;SDS011;72380;52.680;13.606;2024-03-08T07:06:32;15.93;;;8.90;;
8464;SDS011;72380;52.680;13.606;2024-03-08T07:08:59;15.83;;;8.60;;
8464;SDS011;72380;52.680;13.606;2024-03-08T07:11:27;13.17;;;7.57;;
8464;SDS011;72380;52.680;13.606;2024-03-08T07:13:54;17.20;;;8.40;;
8464;SDS011;72380;52.680;13.606;2024-03-08T07:16:24;20.20;;;8.73;;
8464;SDS011;72380;52.680;13.606;2024-03-08T07:18:52;18.47;;;9.03;;
8464;SDS011;72380;52.680;13.606;2024-03-08T07:21:19;19.23;;;9.30;;
8464;SDS011;72380;52.680;13.606;2024-03-08T07:23:46;24.00;;;9.40;;
8464;SDS011;72380;52.680;13.606;2024-03-08T07:26:28;21.17;;;9.70;;
8464;SDS011;72380;52.680;13.606;2024-03-08T07:28:57;19.07;;;9.10;;
8464;SDS011;72380;52.680;13.606;2024-03-08T07:31:27;19.50;;;9.70;;
8464;SDS011;72380;52.680;13.606;2024-03-08T07:34:09;24.97;;;10.33;;
8464;SDS011;72380;52.680;13.606;2024-03-08T07:36:37;20.97;;;8.97;;
8464;SDS011;72380;52.680;13.606;2024-03-08T07:39:05;17.20;;;9.30;;
8464;SDS011;72380;52.680;13.606;2024-03-08T07:41:36;18.40;;;7.87;;
8464;SDS011;72380;52.680;13.606;2024-03-08T07:44:05;15.80;;;8.57;;
8464;SDS011;72380;52.680;13.606;2024-03-08T07:46:34;19.53;;;8.13;;
8464;SDS011;72380;52.680;13.606;2024-03-08T07:49:02;14.27;;;8.87;;
8464;SDS011;72380;52.680;13.606;2024-03-08T07:51:29;16.87;;;7.47;;
8464;SDS011;72380;52.680;13.606;2024-03-08T07:53:57;21.13;;;7.70;;
8464;SDS011;72380;52.680;13.606;2024-03-08T07:56:25;14.83;;;7.43;;
8464;SDS011;72380;52.680;13.606;2024-03-08T07:58:52;20.07;;;9.17;;
8464;SDS011;72380;52.680;13.606;2024-03-08T08:01:20;19.40;;;8.63;;
8464;SDS011;72380;52.680;13.606;2024-03-08T08:03:48;14.47;;;7.37;;
8464;SDS011;72380;52.680;13.606;2024-03-08T08:06:16;24.00;;;9.77;;
8464;SDS011;72380;52.680;13.606;2024-03-08T08:08:43;20.67;;;10.07;;
8464;SDS011;72380;52.680;13.606;2024-03-08T08:11:11;16.93;;;8.40;;
8464;SDS011;72380;52.680;13.606;2024-03-08T08:13:38;19.60;;;8.10;;
8464;SDS011;72380;52.680;13.606;2024-03-08T08:16:07;24.30;;;8.37;;
8464;SDS011;72380;52.680;13.606;2024-03-08T08:18:34;18.77;;;7.47;;
8464;SDS011;72380;52.680;13.606;2024-03-08T08:21:03;14.30;;;6.97;;
8464;SDS011;72380;52.680;13.606;2024-03-08T08:23:31;17.60;;;7.10;;
8464;SDS011;72380;52.680;13.606;2024-03-08T08:25:58;17.43;;;8.77;;
8464;SDS011;72380;52.680;13.606;2024-03-08T08:28:28;16.17;;;7.33;;
8464;SDS011;72380;52.680;13.606;2024-03-08T08:30:56;16.80;;;7.70;;
8464;SDS011;72380;52.680;13.606;2024-03-08T08:33:24;15.67;;;6.93;;
8464;SDS011;72380;52.680;13.606;2024-03-08T08:35:52;21.17;;;8.83;;
8464;SDS011;72380;52.680;13.606;2024-03-08T08:38:20;18.17;;;8.27;;
8464;SDS011;72380;52.680;13.606;2024-03-08T08:40:48;17.00;;;8.43;;
8464;SDS011;72380;52.680;13.606;2024-03-08T08:43:16;17.53;;;7.67;;
8464;SDS011;72380;52.680;13.606;2024-03-08T08:45:45;16.77;;;7.23;;
8464;SDS011;72380;52.680;13.606;2024-03-08T08:48:12;21.07;;;8.23;;
8464;SDS011;72380;52.680;13.606;2024-03-08T08:50:41;13.37;;;7.10;;
8464;SDS011;72380;52.680;13.606;2024-03-08T08:53:09;13.47;;;7.67;;
8464;SDS011;72380;52.680;13.606;2024-03-08T08:55:38;19.17;;;8.93;;
8464;SDS011;72380;52.680;13.606;2024-03-08T08:58:06;16.13;;;7.17;;
8464;SDS011;72380;52.680;13.606;2024-03-08T09:00:34;18.93;;;7.77;;
8464;SDS011;72380;52.680;13.606;2024-03-08T09:03:01;17.53;;;7.77;;
8464;SDS011;72380;52.680;13.606;2024-03-08T09:05:28;11.30;;;6.67;;
8464;SDS011;72380;52.680;13.606;2024-03-08T09:07:55;23.10;;;6.47;;
8464;SDS011;72380;52.680;13.606;2024-03-08T09:10:23;15.37;;;6.97;;
8464;SDS011;72380;52.680;13.606;2024-03-08T09:12:51;14.97;;;6.83;;
8464;SDS011;72380;52.680;13.606;2024-03-08T09:15:19;17.07;;;7.43;;
8464;SDS011;72380;52.680;13.606;2024-03-08T09:17:46;20.13;;;8.50;;
8464;SDS011;72380;52.680;13.606;2024-03-08T09:20:14;14.40;;;6.63;;
8464;SDS011;72380;52.680;13.606;2024-03-08T09:22:43;16.73;;;6.07;;
8464;SDS011;72380;52.680;13.606;2024-03-08T09:25:11;14.40;;;6.57;;
8464;SDS011;72380;52.680;13.606;2024-03-08T09:27:38;12.37;;;7.40;;
8464;SDS011;72380;52.680;13.606;2024-03-08T09:30:08;13.53;;;6.83;;
8464;SDS011;72380;52.680;13.606;2024-03-08T09:32:38;15.57;;;6.07;;
8464;SDS011;72380;52.680;13.606;2024-03-08T09:35:07;14.77;;;6.93;;
8464;SDS011;72380;52.680;13.606;2024-03-08T09:37:36;21.03;;;8.77;;
8464;SDS011;72380;52.680;13.606;2024-03-08T09:40:04;15.50;;;7.93;;
8464;SDS011;72380;52.680;13.606;2024-03-08T09:42:34;16.53;;;7.13;;
8464;SDS011;72380;52.680;13.606;2024-03-08T09:45:04;16.33;;;7.20;;
8464;SDS011;72380;52.680;13.606;2024-03-08T09:47:37;16.93;;;7.77;;
8464;SDS011;72380;52.680;13.606;2024-03-08T09:50:06;13.43;;;7.47;;
8464;SDS011;72380;52.680;13.606;2024-03-08T09:52:35;21.07;;;8.20;;
8464;SDS011;72380;52.680;13.606;2024-03-08T09:55:04;16.73;;;7.83;;
8464;SDS011;72380;52.680;13.606;2024-03-08T09:57:32;17.93;;;7.40;;
8464;SDS011;72380;52.680;13.606;2024-03-08T10:00:00;15.90;;;7.63;;
8464;SDS011;72380;52.680;13.606;2024-03-08T10:02:29;16.57;;;7.60;;
8464;SDS011;72380;52.680;13.606;2024-03-08T10:04:57;16.63;;;7.83;;
8464;SDS011;72380;52.680;13.606;2024-03-08T10:07:28;13.67;;;7.60;;
8464;SDS011;72380;52.680;13.606;2024-03-08T10:09:56;15.60;;;7.40;;
8464;SDS011;72380;52.680;13.606;2024-03-08T10:12:24;17.30;;;7.67;;
8464;SDS011;72380;52.680;13.606;2024-03-08T10:14:54;19.17;;;9.00;;
8464;SDS011;72380;52.680;13.606;2024-03-08T10:17:21;21.97;;;8.17;;
8464;SDS011;72380;52.680;13.606;2024-03-08T10:19:49;13.17;;;6.67;;
8464;SDS011;72380;52.680;13.606;2024-03-08T10:22:19;15.47;;;6.67;;
8464;SDS011;72380;52.680;13.606;2024-03-08T10:24:46;22.57;;;7.13;;
8464;SDS011;72380;52.680;13.606;2024-03-08T10:27:14;17.40;;;6.67;;
8464;SDS011;72380;52.680;13.606;2024-03-08T10:29:45;17.03;;;6.90;;
8464;SDS011;72380;52.680;13.606;2024-03-08T10:32:13;15.00;;;7.60;;
8464;SDS011;72380;52.680;13.606;2024-03-08T10:34:40;13.63;;;7.07;;
8464;SDS011;72380;52.680;13.606;2024-03-08T10:37:08;30.63;;;7.27;;
8464;SDS011;72380;52.680;13.606;2024-03-08T10:39:45;15.27;;;6.20;;
8464;SDS011;72380;52.680;13.606;2024-03-08T10:42:16;13.50;;;6.07;;
8464;SDS011;72380;52.680;13.606;2024-03-08T10:44:47;13.63;;;7.10;;
8464;SDS011;72380;52.680;13.606;2024-03-08T10:47:23;12.07;;;7.63;;
8464;SDS011;72380;52.680;13.606;2024-03-08T10:49:57;13.03;;;6.90;;
8464;SDS011;72380;52.680;13.606;2024-03-08T10:52:29;13.10;;;6.70;;
8464;SDS011;72380;52.680;13.606;2024-03-08T10:54:59;20.23;;;5.93;;
8464;SDS011;72380;52.680;13.606;2024-03-08T10:57:26;13.47;;;6.70;;
8464;SDS011;72380;52.680;13.606;2024-03-08T10:59:53;13.10;;;6.33;;
8464;SDS011;72380;52.680;13.606;2024-03-08T11:02:23;15.47;;;7.23;;
8464;SDS011;72380;52.680;13.606;2024-03-08T11:04:53;11.87;;;6.40;;
8464;SDS011;72380;52.680;13.606;2024-03-08T11:07:21;15.03;;;6.43;;
8464;SDS011;72380;52.680;13.606;2024-03-08T11:09:50;12.27;;;6.00;;
8464;SDS011;72380;52.680;13.606;2024-03-08T11:12:19;12.63;;;6.80;;
8464;SDS011;72380;52.680;13.606;2024-03-08T11:14:47;11.23;;;6.40;;
8464;SDS011;72380;52.680;13.606;2024-03-08T11:17:15;13.87;;;5.80;;
8464;SDS011;72380;52.680;13.606;2024-03-08T11:19:47;13.20;;;6.17;;
8464;SDS011;72380;52.680;13.606;2024-03-08T11:22:20;14.30;;;6.33;;
8464;SDS011;72380;52.680;13.606;2024-03-08T11:24:49;13.47;;;6.03;;
8464;SDS011;72380;52.680;13.606;2024-03-08T11:27:16;15.50;;;6.53;;
8464;SDS011;72380;52.680;13.606;2024-03-08T11:29:50;10.40;;;6.50;;
8464;SDS011;72380;52.680;13.606;2024-03-08T11:32:27;10.17;;;5.13;;
8464;SDS011;72380;52.680;13.606;2024-03-08T11:34:55;10.13;;;5.50;;
8464;SDS011;72380;52.680;13.606;2024-03-08T11:37:23;12.23;;;7.33;;
8464;SDS011;72380;52.680;13.606;2024-03-08T11:39:50;8.60;;;5.60;;
8464;SDS011;72380;52.680;13.606;2024-03-08T11:42:18;10.97;;;5.93;;
8464;SDS011;72380;52.680;13.606;2024-03-08T11:44:46;14.73;;;5.30;;
8464;SDS011;72380;52.680;13.606;2024-03-08T11:47:15;14.67;;;6.60;;
8464;SDS011;72380;52.680;13.606;2024-03-08T11:49:42;12.37;;;6.07;;
8464;SDS011;72380;52.680;13.606;2024-03-08T11:52:11;10.40;;;6.43;;
8464;SDS011;72380;52.680;13.606;2024-03-08T11:54:39;12.93;;;7.37;;
8464;SDS011;72380;52.680;13.606;2024-03-08T11:57:06;18.27;;;7.20;;
8464;SDS011;72380;52.680;13.606;2024-03-08T11:59:35;13.63;;;7.03;;
8464;SDS011;72380;52.680;13.606;2024-03-08T12:02:03;13.00;;;6.57;;
8464;SDS011;72380;52.680;13.606;2024-03-08T12:04:32;16.13;;;7.57;;
8464;SDS011;72380;52.680;13.606;2024-03-08T12:07:01;13.77;;;7.57;;
8464;SDS011;72380;52.680;13.606;2024-03-08T12:09:28;12.97;;;7.20;;
8464;SDS011;72380;52.680;13.606;2024-03-08T12:11:55;15.27;;;7.60;;
8464;SDS011;72380;52.680;13.606;2024-03-08T12:14:22;13.67;;;7.20;;
8464;SDS011;72380;52.680;13.606;2024-03-08T12:16:50;12.83;;;7.90;;
8464;SDS011;72380;52.680;13.606;2024-03-08T12:19:18;11.90;;;7.13;;
8464;SDS011;72380;52.680;13.606;2024-03-08T12:21:46;10.97;;;6.77;;
8464;SDS011;72380;52.680;13.606;2024-03-08T12:24:15;14.30;;;8.03;;
8464;SDS011;72380;52.680;13.606;2024-03-08T12:26:45;15.47;;;7.83;;
8464;SDS011;72380;52.680;13.606;2024-03-08T12:29:20;13.73;;;7.37;;
8464;SDS011;72380;52.680;13.606;2024-03-08T12:31:48;12.33;;;7.77;;
8464;SDS011;72380;52.680;13.606;2024-03-08T12:34:18;14.27;;;7.57;;
8464;SDS011;72380;52.680;13.606;2024-03-08T12:36:47;14.00;;;7.90;;
8464;SDS011;72380;52.680;13.606;2024-03-08T12:39:15;12.73;;;6.90;;
8464;SDS011;72380;52.680;13.606;2024-03-08T12:41:47;12.47;;;6.93;;
8464;SDS011;72380;52.680;13.606;2024-03-08T12:44:17;17.23;;;7.67;;
8464;SDS011;72380;52.680;13.606;2024-03-08T12:46:44;11.00;;;6.93;;
8464;SDS011;72380;52.680;13.606;2024-03-08T12:49:11;12.93;;;8.37;;
8464;SDS011;72380;52.680;13.606;2024-03-08T12:51:43;10.33;;;6.83;;
8464;SDS011;72380;52.680;13.606;2024-03-08T12:54:12;12.30;;;7.60;;
8464;SDS011;72380;52.680;13.606;2024-03-08T12:56:39;13.25;;;7.25;;
8464;SDS011;72380;52.680;13.606;2024-03-08T12:59:07;13.13;;;7.53;;
8464;SDS011;72380;52.680;13.606;2024-03-08T13:01:35;12.15;;;6.85;;
8464;SDS011;72380;52.680;13.606;2024-03-08T13:04:03;11.90;;;6.90;;
8464;SDS011;72380;52.680;13.606;2024-03-08T13:06:32;15.25;;;8.65;;
8464;SDS011;72380;52.680;13.606;2024-03-08T13:08:59;13.90;;;8.35;;
8464;SDS011;72380;52.680;13.606;2024-03-08T13:11:32;12.70;;;8.57;;
8464;SDS011;72380;52.680;13.606;2024-03-08T13:14:02;14.48;;;7.65;;
8464;SDS011;72380;52.680;13.606;2024-03-08T13:16:30;13.75;;;8.15;;
8464;SDS011;72380;52.680;13.606;2024-03-08T13:19:00;24.13;;;8.73;;
8464;SDS011;72380;52.680;13.606;2024-03-08T13:21:27;13.20;;;7.97;;
8464;SDS011;72380;52.680;13.606;2024-03-08T13:23:55;11.60;;;7.75;;
8464;SDS011;72380;52.680;13.606;2024-03-08T13:26:24;17.73;;;8.23;;
8464;SDS011;72380;52.680;13.606;2024-03-08T13:28:59;17.88;;;8.65;;
8464;SDS011;72380;52.680;13.606;2024-03-08T13:31:26;15.48;;;9.00;;
8464;SDS011;72380;52.680;13.606;2024-03-08T13:33:53;11.15;;;7.82;;
8464;SDS011;72380;52.680;13.606;2024-03-08T13:36:23;12.60;;;7.95;;
8464;SDS011;72380;52.680;13.606;2024-03-08T13:38:54;15.00;;;8.40;;
8464;SDS011;72380;52.680;13.606;2024-03-08T13:41:24;14.90;;;8.30;;
8464;SDS011;72380;52.680;13.606;2024-03-08T13:43:51;13.25;;;9.15;;
8464;SDS011;72380;52.680;13.606;2024-03-08T13:46:22;12.60;;;7.90;;
8464;SDS011;72380;52.680;13.606;2024-03-08T13:48:50;11.77;;;8.55;;
8464;SDS011;72380;52.680;13.606;2024-03-08T13:51:19;15.15;;;8.75;;
8464;SDS011;72380;52.680;13.606;2024-03-08T13:53:48;13.77;;;9.25;;
8464;SDS011;72380;52.680;13.606;2024-03-08T13:56:15;11.98;;;8.93;;
8464;SDS011;72380;52.680;13.606;2024-03-08T13:58:42;12.50;;;8.13;;
8464;SDS011;72380;52.680;13.606;2024-03-08T14:01:10;14.57;;;7.97;;
8464;SDS011;72380;52.680;13.606;2024-03-08T14:03:39;13.15;;;7.78;;
8464;SDS011;72380;52.680;13.606;2024-03-08T14:06:07;11.88;;;8.10;;
8464;SDS011;72380;52.680;13.606;2024-03-08T14:08:34;13.25;;;8.52;;
8464;SDS011;72380;52.680;13.606;2024-03-08T14:11:03;14.98;;;7.38;;
8464;SDS011;72380;52.680;13.606;2024-03-08T14:13:40;17.33;;;8.13;;
8464;SDS011;72380;52.680;13.606;2024-03-08T14:16:07;11.70;;;7.22;;
8464;SDS011;72380;52.680;13.606;2024-03-08T14:18:35;17.83;;;7.93;;
8464;SDS011;72380;52.680;13.606;2024-03-08T14:21:04;12.13;;;8.82;;
8464;SDS011;72380;52.680;13.606;2024-03-08T14:23:32;13.30;;;8.02;;
8464;SDS011;72380;52.680;13.606;2024-03-08T14:25:59;12.80;;;8.00;;
8464;SDS011;72380;52.680;13.606;2024-03-08T14:28:26;13.20;;;8.32;;
8464;SDS011;72380;52.680;13.606;2024-03-08T14:30:54;18.73;;;8.48;;
8464;SDS011;72380;52.680;13.606;2024-03-08T14:33:22;13.52;;;7.80;;
8464;SDS011;72380;52.680;13.606;2024-03-08T14:35:50;13.30;;;7.50;;
8464;SDS011;72380;52.680;13.606;2024-03-08T14:38:19;11.20;;;7.75;;
8464;SDS011;72380;52.680;13.606;2024-03-08T14:40:46;16.15;;;8.02;;
8464;SDS011;72380;52.680;13.606;2024-03-08T14:43:14;13.10;;;7.53;;